createdAt,value
2022-08-16T00:05:48.304Z,14.10
2022-08-16T00:08:36.823Z,13.80
2022-08-16T00:11:05.976Z,16.67
2022-08-16T00:13:41.690Z,14.43
2022-08-16T00:17:00.880Z,11.33
2022-08-16T00:18:59.725Z,9.50
2022-08-16T00:21:29.099Z,8.37
2022-08-16T00:23:58.135Z,6.50
2022-08-16T00:26:35.392Z,8.10
2022-08-16T00:29:08.692Z,4.80
2022-08-16T00:31:58.900Z,14.73
2022-08-16T00:34:43.772Z,16.67
2022-08-16T00:37:16.916Z,12.83
2022-08-16T00:39:47.069Z,19.83
2022-08-16T00:42:30.702Z,22.43
2022-08-16T00:45:08.087Z,24.17
2022-08-16T00:47:37.445Z,20.93
2022-08-16T00:50:11.500Z,23.27
2022-08-16T00:52:45.988Z,18.57
2022-08-16T00:55:19.350Z,20.93
2022-08-16T00:57:59.179Z,21.07
2022-08-16T01:00:32.540Z,3.43
2022-08-16T01:03:04.625Z,27.07
2022-08-16T01:05:33.851Z,23.43
2022-08-16T01:08:34.862Z,29.17
2022-08-16T01:10:52.916Z,13.60
2022-08-16T01:13:22.891Z,19.37
2022-08-16T01:16:02.930Z,24.10
2022-08-16T01:18:39.155Z,26.90
2022-08-16T01:21:16.199Z,20.30
2022-08-16T01:24:53.678Z,23.60
2022-08-16T01:27:03.859Z,18.10
2022-08-16T01:29:56.672Z,19.60
2022-08-16T01:32:33.739Z,17.03
2022-08-16T01:35:03.476Z,7.17
2022-08-16T01:37:38.708Z,4.00
2022-08-16T01:40:08.197Z,20.53
2022-08-16T01:42:38.084Z,24.93
2022-08-16T01:45:10.996Z,24.67
2022-08-16T01:47:49.354Z,25.33
2022-08-16T01:50:42.872Z,23.80
2022-08-16T01:53:10.095Z,23.63
2022-08-16T01:55:40.913Z,8.33
2022-08-16T01:58:10.906Z,19.93
2022-08-16T02:00:41.291Z,22.07
2022-08-16T02:03:12.639Z,22.37
2022-08-16T02:05:42.160Z,19.37
2022-08-16T02:08:33.914Z,24.20
2022-08-16T02:11:04.494Z,21.27
2022-08-16T02:13:34.307Z,24.00
2022-08-16T02:16:02.688Z,28.23
2022-08-16T02:18:31.075Z,24.17
2022-08-16T02:21:03.350Z,28.63
2022-08-16T02:23:32.772Z,30.03
2022-08-16T02:26:01.184Z,25.30
2022-08-16T02:28:30.698Z,23.50
2022-08-16T02:31:01.593Z,24.07
2022-08-16T02:33:43.754Z,26.87
2022-08-16T02:36:47.735Z,25.50
2022-08-16T02:39:02.596Z,25.47
2022-08-16T02:41:31.635Z,23.33
2022-08-16T02:44:02.588Z,25.07
2022-08-16T02:46:33.457Z,27.60
2022-08-16T02:49:02.335Z,19.53
2022-08-16T02:51:31.341Z,27.37
2022-08-16T02:53:59.823Z,19.20
2022-08-16T02:56:32.339Z,22.00
2022-08-16T02:59:00.849Z,25.33
2022-08-16T03:01:33.721Z,23.50
2022-08-16T03:04:39.301Z,17.03
2022-08-16T03:06:57.390Z,17.87
2022-08-16T03:09:28.874Z,22.33
2022-08-16T03:12:02.463Z,22.90
2022-08-16T03:14:31.075Z,19.80
2022-08-16T03:17:00.887Z,19.93
2022-08-16T03:19:48.446Z,24.23
2022-08-16T03:22:28.231Z,22.37
2022-08-16T03:24:58.495Z,12.83
2022-08-16T03:27:31.286Z,20.30
2022-08-16T03:30:16.565Z,24.50
2022-08-16T03:32:47.234Z,25.73
2022-08-16T03:35:18.257Z,26.37
2022-08-16T03:38:02.689Z,31.40
2022-08-16T03:40:33.891Z,28.20
2022-08-16T03:43:20.012Z,32.33
2022-08-16T03:45:52.381Z,29.53
2022-08-16T03:48:37.129Z,13.87
2022-08-16T03:51:12.516Z,26.90
2022-08-16T03:53:41.968Z,34.70
2022-08-16T03:56:20.897Z,29.43
2022-08-16T03:58:51.005Z,11.07
2022-08-16T04:01:21.344Z,22.33
2022-08-16T04:03:51.216Z,21.53
2022-08-16T04:06:22.809Z,21.00
2022-08-16T04:08:51.210Z,24.87
2022-08-16T04:11:19.773Z,30.27
2022-08-16T04:14:01.515Z,30.13
2022-08-16T04:16:37.338Z,39.83
2022-08-16T04:19:05.746Z,39.10
2022-08-16T04:21:36.040Z,36.90
2022-08-16T04:24:15.702Z,32.70
2022-08-16T04:26:45.976Z,26.80
2022-08-16T04:29:24.253Z,18.53
2022-08-16T04:31:56.698Z,31.83
2022-08-16T04:34:27.621Z,29.97
2022-08-16T04:36:59.054Z,32.53
2022-08-16T04:39:44.933Z,21.27
2022-08-16T04:42:15.871Z,18.23
2022-08-16T04:44:54.565Z,31.40
2022-08-16T04:47:24.615Z,23.43
2022-08-16T04:49:53.140Z,25.80
2022-08-16T04:52:33.382Z,30.83
2022-08-16T04:55:04.840Z,36.77
2022-08-16T04:57:33.433Z,33.90
2022-08-16T05:00:32.373Z,27.50
2022-08-16T05:02:54.918Z,31.93
2022-08-16T05:05:25.104Z,30.87
2022-08-16T05:08:00.558Z,29.70
2022-08-16T05:10:29.487Z,32.60
2022-08-16T05:12:58.396Z,20.47
2022-08-16T05:15:27.123Z,31.87
2022-08-16T05:17:58.580Z,15.43
2022-08-16T05:20:38.925Z,23.97
2022-08-16T05:23:18.719Z,31.73
2022-08-16T05:25:49.525Z,34.00
2022-08-16T05:28:18.610Z,34.23
2022-08-16T05:30:50.302Z,28.97
2022-08-16T05:33:19.033Z,27.23
2022-08-16T05:35:55.002Z,29.43
2022-08-16T05:38:32.407Z,22.87
2022-08-16T05:41:09.512Z,26.80
2022-08-16T05:43:43.266Z,24.33
2022-08-16T05:46:30.257Z,4.70
2022-08-16T05:49:06.056Z,4.00
2022-08-16T05:51:40.100Z,5.30
2022-08-16T05:54:11.620Z,9.80
2022-08-16T05:56:42.947Z,15.13
2022-08-16T05:59:12.009Z,23.80
2022-08-16T06:01:41.280Z,27.67
2022-08-16T06:04:13.557Z,25.43
2022-08-16T06:06:58.864Z,20.70
2022-08-16T06:09:43.759Z,30.07
2022-08-16T06:12:26.770Z,32.23
2022-08-16T06:14:58.895Z,16.67
2022-08-16T06:17:43.137Z,17.80
2022-08-16T06:20:14.452Z,10.63
2022-08-16T06:22:47.534Z,21.13
2022-08-16T06:25:17.668Z,17.43
2022-08-16T06:28:08.619Z,15.63
2022-08-16T06:30:43.535Z,19.80
2022-08-16T06:33:19.501Z,19.13
2022-08-16T06:35:50.895Z,20.70
2022-08-16T06:38:33.908Z,16.27
2022-08-16T06:41:05.633Z,6.67
2022-08-16T06:43:34.272Z,16.37
2022-08-16T06:46:03.838Z,23.73
2022-08-16T06:48:33.759Z,3.93
2022-08-16T06:51:03.405Z,11.13
2022-08-16T06:53:35.488Z,16.07
2022-08-16T06:56:14.522Z,10.03
2022-08-16T06:58:48.153Z,7.37
2022-08-16T07:01:22.751Z,6.47
2022-08-16T07:03:55.822Z,9.27
2022-08-16T07:06:26.492Z,6.77
2022-08-16T07:08:55.924Z,5.30
2022-08-16T07:11:48.090Z,16.73
2022-08-16T07:14:26.257Z,12.37
2022-08-16T07:16:58.389Z,5.60
2022-08-16T07:19:33.597Z,7.73
2022-08-16T07:22:38.637Z,8.53
2022-08-16T07:25:10.479Z,4.87
2022-08-16T07:27:42.144Z,17.93
2022-08-16T07:30:38.426Z,12.90
2022-08-16T07:33:02.190Z,10.80
2022-08-16T07:35:31.192Z,12.27
2022-08-16T07:38:00.689Z,12.10
2022-08-16T07:40:56.243Z,6.17
2022-08-16T07:43:19.528Z,3.53
2022-08-16T07:45:51.327Z,6.87
2022-08-16T07:48:22.178Z,13.23
2022-08-16T07:50:56.281Z,1.80
2022-08-16T07:53:28.861Z,2.77
2022-08-16T07:55:57.792Z,7.63
2022-08-16T07:58:34.965Z,2.50
2022-08-16T08:01:10.753Z,16.33
2022-08-16T08:03:47.714Z,7.00
2022-08-16T08:06:17.366Z,10.80
2022-08-16T08:08:50.747Z,10.83
2022-08-16T08:11:21.318Z,17.73
2022-08-16T08:13:51.326Z,7.97
2022-08-16T08:16:22.289Z,7.40
2022-08-16T08:19:01.033Z,6.27
2022-08-16T08:21:58.297Z,12.20
2022-08-16T08:24:20.577Z,3.83
2022-08-16T08:26:49.912Z,7.80
2022-08-16T08:29:23.199Z,5.60
2022-08-16T08:32:51.185Z,8.97
2022-08-16T08:34:54.707Z,3.97
2022-08-16T08:37:51.189Z,6.03
2022-08-16T08:40:18.556Z,6.47
2022-08-16T08:42:48.117Z,2.80
2022-08-16T08:45:36.225Z,5.20
2022-08-16T08:48:08.312Z,6.43
2022-08-16T08:50:57.129Z,7.03
2022-08-16T08:53:30.562Z,16.33
2022-08-16T08:55:59.487Z,5.50
2022-08-16T08:58:34.421Z,17.67
2022-08-16T09:01:06.204Z,5.37
2022-08-16T09:03:38.637Z,7.60
2022-08-16T09:06:08.216Z,4.80
2022-08-16T09:08:37.893Z,4.40
2022-08-16T09:11:07.398Z,4.00
2022-08-16T09:13:38.296Z,1.90
2022-08-16T09:17:01.043Z,3.27
2022-08-16T09:21:35.479Z,6.50
2022-08-16T09:24:09.973Z,4.47
2022-08-16T09:26:45.856Z,9.33
2022-08-16T09:29:23.706Z,4.90
2022-08-16T09:31:56.383Z,7.73
2022-08-16T09:34:25.298Z,11.40
2022-08-16T09:36:58.061Z,5.27
2022-08-16T09:39:28.761Z,4.40
2022-08-16T09:42:10.657Z,8.63
2022-08-16T09:45:13.039Z,4.87
2022-08-16T09:47:29.022Z,5.90
2022-08-16T09:50:22.580Z,5.63
2022-08-16T09:52:51.774Z,8.80
2022-08-16T09:55:20.819Z,9.97
2022-08-16T09:57:53.721Z,6.27
2022-08-16T10:00:43.890Z,5.13
2022-08-16T10:03:11.893Z,4.73
2022-08-16T10:05:40.284Z,3.17
2022-08-16T10:08:25.853Z,10.53
2022-08-16T10:11:24.142Z,2.43
2022-08-16T10:13:53.288Z,2.50
2022-08-16T10:16:23.534Z,3.00
2022-08-16T10:19:06.785Z,4.23
2022-08-16T10:21:35.826Z,5.00
2022-08-16T10:24:06.117Z,3.93
2022-08-16T10:27:20.022Z,4.93
2022-08-16T10:29:23.759Z,3.63
2022-08-16T10:31:53.760Z,3.80
2022-08-16T10:34:31.417Z,4.80
2022-08-16T10:37:01.156Z,5.30
2022-08-16T10:39:40.914Z,4.10
2022-08-16T10:42:10.591Z,5.13
2022-08-16T10:44:42.571Z,2.93
2022-08-16T10:47:15.002Z,5.77
2022-08-16T10:49:46.873Z,9.97
2022-08-16T10:52:18.153Z,4.57
2022-08-16T10:57:36.098Z,7.47
2022-08-16T11:00:22.488Z,4.07
2022-08-16T11:02:59.694Z,3.90
2022-08-16T11:08:23.476Z,3.87
2022-08-16T11:11:11.788Z,5.17
2022-08-16T11:14:06.160Z,4.27
2022-08-16T11:19:25.219Z,6.37
2022-08-16T11:22:39.635Z,6.37
2022-08-16T11:24:46.624Z,6.80
2022-08-16T11:27:35.851Z,10.70
2022-08-16T11:30:09.190Z,3.30
2022-08-16T11:32:40.822Z,6.13
2022-08-16T11:35:14.669Z,6.37
2022-08-16T11:40:38.827Z,8.70
2022-08-16T11:43:10.179Z,3.37
2022-08-16T11:45:39.422Z,5.73
2022-08-16T11:48:11.589Z,7.07
2022-08-16T11:50:40.128Z,1.13
2022-08-16T11:53:10.360Z,4.30
2022-08-16T11:55:39.525Z,6.97
2022-08-16T11:58:12.595Z,9.10
2022-08-16T12:00:50.496Z,5.77
2022-08-16T12:03:31.101Z,6.57
2022-08-16T12:06:08.083Z,6.87
2022-08-16T12:08:43.202Z,5.70
2022-08-16T12:11:12.226Z,5.40
2022-08-16T12:13:40.867Z,5.07
2022-08-16T12:16:10.243Z,3.30
2022-08-16T12:18:40.132Z,3.27
2022-08-16T12:21:09.966Z,4.80
2022-08-16T12:23:38.771Z,4.70
2022-08-16T12:26:10.332Z,11.03
2022-08-16T12:28:54.626Z,9.83
2022-08-16T12:31:25.752Z,6.57
2022-08-16T12:33:57.577Z,4.77
2022-08-16T12:36:29.921Z,8.60
2022-08-16T12:38:59.079Z,10.10
2022-08-16T12:41:29.091Z,8.47
2022-08-16T12:44:03.498Z,8.00
2022-08-16T12:46:32.284Z,3.10
2022-08-16T12:49:01.026Z,4.40
2022-08-16T12:51:58.598Z,6.97
2022-08-16T12:54:21.971Z,7.97
2022-08-16T12:56:51.859Z,9.43
2022-08-16T12:59:21.893Z,8.23
2022-08-16T13:01:58.198Z,6.57
2022-08-16T13:04:33.127Z,7.10
2022-08-16T13:09:37.821Z,17.93
2022-08-16T13:12:19.966Z,16.57
2022-08-16T13:14:50.346Z,8.77
2022-08-16T13:17:20.996Z,4.77
2022-08-16T13:25:10.164Z,6.07
2022-08-16T13:28:02.792Z,8.33
2022-08-16T13:30:37.102Z,11.20
2022-08-16T13:33:12.201Z,10.80
2022-08-16T13:35:43.170Z,7.07
2022-08-16T13:38:21.564Z,6.80
2022-08-16T13:40:55.685Z,5.83
2022-08-16T13:43:57.436Z,8.67
2022-08-16T13:46:26.801Z,12.10
2022-08-16T13:48:55.345Z,9.50
2022-08-16T13:51:24.422Z,8.83
2022-08-16T13:53:55.570Z,7.50
2022-08-16T13:56:37.222Z,6.43
2022-08-16T13:59:19.161Z,8.70
2022-08-16T14:01:55.641Z,11.90
2022-08-16T14:04:26.671Z,16.50
2022-08-16T14:06:56.345Z,14.53
2022-08-16T14:09:27.000Z,26.23
2022-08-16T14:11:55.989Z,9.57
2022-08-16T14:14:29.090Z,8.93
2022-08-16T14:16:57.933Z,8.87
2022-08-16T14:19:28.009Z,11.20
2022-08-16T14:22:14.291Z,8.00
2022-08-16T14:24:48.165Z,20.60
2022-08-16T14:27:17.864Z,8.20
2022-08-16T14:29:49.486Z,4.70
2022-08-16T14:32:27.206Z,4.80
2022-08-16T14:35:02.478Z,6.40
2022-08-16T14:37:32.060Z,10.27
2022-08-16T14:40:01.392Z,5.30
2022-08-16T14:42:31.992Z,8.10
2022-08-16T14:45:01.929Z,16.60
2022-08-16T14:47:34.244Z,6.00
2022-08-16T14:50:05.788Z,8.00
2022-08-16T14:55:23.464Z,10.87
2022-08-16T14:57:52.844Z,10.03
2022-08-16T15:00:27.162Z,13.37
2022-08-16T15:03:04.588Z,9.97
2022-08-16T15:05:33.291Z,6.53
2022-08-16T15:08:03.575Z,2.57
2022-08-16T15:10:32.645Z,6.00
2022-08-16T15:13:01.488Z,3.43
2022-08-16T15:15:31.790Z,8.90
2022-08-16T15:18:01.835Z,2.30
2022-08-16T15:20:32.260Z,6.90
2022-08-16T15:23:01.687Z,5.80
2022-08-16T15:25:31.879Z,6.20
2022-08-16T15:28:04.776Z,7.57
2022-08-16T15:30:56.707Z,3.73
2022-08-16T15:33:26.956Z,10.20
2022-08-16T15:35:58.246Z,10.57
2022-08-16T15:38:54.866Z,3.27
2022-08-16T15:41:31.502Z,3.93
2022-08-16T15:44:05.165Z,2.67
2022-08-16T15:46:56.482Z,2.07
2022-08-16T15:49:34.818Z,2.43
2022-08-16T15:52:10.472Z,2.50
2022-08-16T15:54:52.171Z,2.53
2022-08-16T15:57:22.638Z,4.03
2022-08-16T15:59:52.889Z,10.83
2022-08-16T16:02:31.300Z,1.50
2022-08-16T16:05:01.690Z,3.60
2022-08-16T16:07:33.786Z,7.27
2022-08-16T16:10:02.925Z,2.60
2022-08-16T16:12:51.390Z,2.20
2022-08-16T16:15:22.620Z,6.97
2022-08-16T16:17:53.257Z,4.50
2022-08-16T16:20:24.305Z,4.63
2022-08-16T16:22:56.480Z,1.77
2022-08-16T16:25:26.352Z,5.27
2022-08-16T16:27:55.373Z,3.23
2022-08-16T16:30:37.508Z,2.13
2022-08-16T16:33:20.526Z,6.97
2022-08-16T16:35:55.182Z,3.87
2022-08-16T16:38:26.413Z,3.47
2022-08-16T16:40:55.716Z,1.97
2022-08-16T16:43:25.521Z,1.67
2022-08-16T16:45:54.521Z,4.53
2022-08-16T16:48:29.582Z,2.87
2022-08-16T16:51:06.079Z,3.60
2022-08-16T16:53:38.237Z,1.60
2022-08-16T16:56:10.263Z,2.33
2022-08-16T16:59:01.705Z,2.03
2022-08-16T17:01:41.215Z,2.30
2022-08-16T17:04:27.448Z,3.10
2022-08-16T17:07:01.434Z,4.77
2022-08-16T17:09:30.031Z,2.53
2022-08-16T17:11:59.335Z,1.60
2022-08-16T17:14:32.668Z,2.90
2022-08-16T17:17:02.465Z,1.97
2022-08-16T17:19:32.522Z,0.67
2022-08-16T17:22:00.976Z,3.93
2022-08-16T17:24:31.427Z,3.70
2022-08-16T17:27:32.041Z,3.90
2022-08-16T17:30:02.638Z,6.90
2022-08-16T17:32:34.033Z,4.70
2022-08-16T17:35:19.655Z,2.30
2022-08-16T17:37:51.817Z,1.17
2022-08-16T17:40:40.478Z,6.53
2022-08-16T17:43:10.283Z,2.43
2022-08-16T17:45:40.397Z,0.47
2022-08-16T17:48:08.938Z,2.87
2022-08-16T17:50:39.154Z,4.07
2022-08-16T17:53:08.001Z,3.33
2022-08-16T17:55:37.556Z,4.43
2022-08-16T17:58:17.549Z,2.60
2022-08-16T18:00:53.240Z,14.07
2022-08-16T18:04:02.414Z,2.70
2022-08-16T18:06:16.823Z,6.73
2022-08-16T18:08:48.534Z,1.07
2022-08-16T18:11:25.693Z,0.63
2022-08-16T18:13:55.505Z,2.07
2022-08-16T18:16:24.428Z,5.63
2022-08-16T18:18:52.972Z,5.17
2022-08-16T18:21:41.103Z,3.20
2022-08-16T18:24:10.094Z,5.67
2022-08-16T18:26:39.012Z,4.27
2022-08-16T18:29:07.649Z,3.50
2022-08-16T18:31:36.157Z,2.40
2022-08-16T18:34:04.721Z,2.30
2022-08-16T18:36:34.672Z,7.53
2022-08-16T18:39:03.124Z,2.10
2022-08-16T18:41:33.753Z,1.77
2022-08-16T18:44:24.709Z,3.73
2022-08-16T18:46:51.226Z,3.50
2022-08-16T18:49:20.086Z,6.43
2022-08-16T18:51:50.876Z,4.90
2022-08-16T18:54:19.857Z,3.60
2022-08-16T18:56:55.702Z,3.27
2022-08-16T18:59:26.969Z,3.00
2022-08-16T19:01:59.781Z,2.00
2022-08-16T19:04:47.412Z,1.53
2022-08-16T19:07:18.173Z,5.23
2022-08-16T19:09:46.845Z,3.23
2022-08-16T19:12:15.712Z,2.73
2022-08-16T19:14:44.271Z,4.03
2022-08-16T19:17:12.687Z,5.33
2022-08-16T19:19:41.055Z,6.90
2022-08-16T19:22:09.471Z,2.00
2022-08-16T19:24:40.918Z,1.90
2022-08-16T19:27:13.949Z,2.60
2022-08-16T19:29:42.611Z,7.33
2022-08-16T19:32:17.086Z,5.27
2022-08-16T19:34:45.588Z,1.53
2022-08-16T19:37:14.145Z,2.20
2022-08-16T19:39:44.110Z,2.40
2022-08-16T19:42:14.133Z,2.20
2022-08-16T19:44:42.695Z,3.50
2022-08-16T19:47:11.215Z,2.40
2022-08-16T19:49:40.221Z,4.10
2022-08-16T19:52:12.854Z,5.17
2022-08-16T19:54:41.453Z,6.77
2022-08-16T19:57:11.578Z,5.03
2022-08-16T19:59:40.921Z,4.20
2022-08-16T20:02:10.342Z,4.07
2022-08-16T20:04:59.595Z,6.33
2022-08-16T20:07:28.098Z,4.33
2022-08-16T20:09:58.421Z,8.50
2022-08-16T20:12:30.809Z,4.33
2022-08-16T20:14:59.474Z,3.53
2022-08-16T20:17:27.853Z,3.33
2022-08-16T20:19:56.308Z,11.23
2022-08-16T20:22:51.743Z,5.23
2022-08-16T20:25:16.995Z,0.60
2022-08-16T20:27:47.172Z,3.40
2022-08-16T20:30:16.804Z,1.73
2022-08-16T20:32:45.807Z,4.13
2022-08-16T20:35:15.510Z,3.23
2022-08-16T20:37:44.072Z,0.47
2022-08-16T20:40:27.955Z,7.13
2022-08-16T20:43:06.706Z,8.17
2022-08-16T20:45:35.430Z,3.40
2022-08-16T20:48:03.847Z,1.63
2022-08-16T20:50:32.314Z,3.23
2022-08-16T20:53:01.025Z,1.80
2022-08-16T20:55:29.500Z,1.93
2022-08-16T20:57:57.947Z,0.70
2022-08-16T21:00:29.033Z,4.57
2022-08-16T21:02:57.478Z,0.20
2022-08-16T21:05:27.798Z,1.23
2022-08-16T21:08:00.446Z,2.60
2022-08-16T21:10:28.872Z,12.70
2022-08-16T21:12:59.061Z,1.50
2022-08-16T21:15:29.328Z,1.47
2022-08-16T21:17:57.691Z,0.80
2022-08-16T21:20:27.938Z,6.57
2022-08-16T21:22:57.024Z,0.47
2022-08-16T21:25:25.939Z,4.87
2022-08-16T21:28:41.500Z,1.50
2022-08-16T21:30:44.449Z,4.53
2022-08-16T21:33:13.810Z,4.07
2022-08-16T21:35:43.355Z,1.67
2022-08-16T21:38:29.146Z,0.60
2022-08-16T21:40:59.217Z,5.20
2022-08-16T21:43:32.260Z,3.13
2022-08-16T21:46:02.857Z,4.47
2022-08-16T21:48:34.654Z,1.67
2022-08-16T21:51:04.401Z,1.80
2022-08-16T21:53:33.106Z,5.77
2022-08-16T21:56:02.168Z,2.10
2022-08-16T21:58:31.336Z,1.40
2022-08-16T22:00:59.846Z,1.47
2022-08-16T22:03:30.095Z,1.17
2022-08-16T22:06:10.076Z,2.10
2022-08-16T22:08:49.564Z,1.07
2022-08-16T22:11:19.694Z,3.27
2022-08-16T22:13:51.487Z,2.10
2022-08-16T22:16:26.891Z,2.53
2022-08-16T22:18:56.672Z,0.30
2022-08-16T22:21:25.285Z,2.63
2022-08-16T22:23:56.667Z,2.97
2022-08-16T22:26:29.814Z,2.27
2022-08-16T22:29:00.276Z,3.37
2022-08-16T22:31:28.863Z,2.57
2022-08-16T22:33:58.703Z,6.07
2022-08-16T22:36:28.857Z,2.90
2022-08-16T22:38:58.762Z,5.33
2022-08-16T22:41:27.983Z,17.53
2022-08-16T22:43:56.611Z,4.77
2022-08-16T22:46:25.296Z,6.60
2022-08-16T22:48:53.697Z,5.07
2022-08-16T22:51:24.888Z,5.20
2022-08-16T22:53:53.556Z,2.13
2022-08-16T22:56:23.081Z,3.30
2022-08-16T22:58:51.622Z,9.23
2022-08-16T23:01:20.635Z,13.33
2022-08-16T23:03:49.320Z,5.13
2022-08-16T23:06:18.975Z,6.67
2022-08-16T23:08:48.810Z,3.60
2022-08-16T23:11:22.365Z,5.13
2022-08-16T23:13:53.435Z,5.37
2022-08-16T23:16:23.238Z,4.37
2022-08-16T23:18:57.114Z,4.47
2022-08-16T23:21:26.507Z,4.80
2022-08-16T23:23:56.644Z,8.30
2022-08-16T23:26:45.298Z,7.67
2022-08-16T23:29:22.073Z,7.23
2022-08-16T23:31:55.152Z,3.77
2022-08-16T23:34:23.776Z,9.87
2022-08-16T23:36:52.214Z,11.83
2022-08-16T23:39:22.617Z,10.83
2022-08-16T23:41:51.928Z,11.43
2022-08-16T23:44:57.684Z,16.47
2022-08-16T23:47:09.600Z,7.63
2022-08-16T23:50:01.794Z,9.07
2022-08-16T23:52:53.248Z,4.67
2022-08-16T23:55:17.295Z,1.73
2022-08-16T23:57:47.410Z,1.00
